Detroit, Michigan
Traffic Map
Current Weather Conditions
Detroit, Michigan
Broken Clouds
Broken Clouds
21°
Feels Like: 21°
Wind Chill: 21° Ceiling: 28000
Heat Index: 21° Visibility: 15mi
Dew Point: 17° Wind: 5mph
Humidity: 78% Direction: 170° (S)
Pressure: 30.21in Gusts: 0mph
Raw Report DataCYQG 240100Z 17004KT 15SM BKN280 21/17 A3021 RMK CI5 SLP230 DENSITY ALT 1100FT
Traffic Incident Summary
Active as of:
Severity:
Category:
InformationThere was an issue retrieving the traffic information for this location. Please try a different location or try again shortly.
Advertisements
Track Severe Weather on mobile